createdAt,value
2023-01-17T00:00:00.056Z,43.82
2023-01-17T00:01:00.154Z,43.81
2023-01-17T00:02:00.203Z,43.82
2023-01-17T00:03:00.363Z,43.82
2023-01-17T00:04:00.357Z,43.83
2023-01-17T00:05:00.424Z,43.85
2023-01-17T00:06:00.535Z,43.86
2023-01-17T00:07:00.605Z,43.84
2023-01-17T00:08:00.671Z,43.84
2023-01-17T00:09:00.747Z,43.87
2023-01-17T00:10:00.809Z,43.84
2023-01-17T00:11:00.902Z,43.83
2023-01-17T00:12:01.002Z,43.82
2023-01-17T00:13:01.061Z,43.82
2023-01-17T00:14:01.165Z,43.82
2023-01-17T00:15:01.223Z,43.82
2023-01-17T00:16:01.368Z,43.82
2023-01-17T00:17:01.408Z,43.80
2023-01-17T00:18:01.520Z,43.82
2023-01-17T00:19:01.603Z,43.83
2023-01-17T00:20:01.677Z,43.82
2023-01-17T00:21:01.744Z,43.82
2023-01-17T00:22:07.833Z,43.81
2023-01-17T00:23:01.934Z,43.83
2023-01-17T00:24:02.009Z,43.83
2023-01-17T00:25:02.063Z,43.83
2023-01-17T00:26:02.158Z,43.80
2023-01-17T00:27:02.219Z,43.81
2023-01-17T00:28:02.281Z,43.82
2023-01-17T00:29:02.368Z,43.83
2023-01-17T00:30:02.449Z,43.83
2023-01-17T00:31:02.567Z,43.83
2023-01-17T00:32:02.572Z,43.85
2023-01-17T00:33:02.659Z,43.85
2023-01-17T00:34:02.743Z,43.85
2023-01-17T00:35:02.910Z,43.85
2023-01-17T00:36:02.899Z,43.84
2023-01-17T00:37:02.991Z,43.84
2023-01-17T00:38:03.077Z,43.83
2023-01-17T00:39:03.182Z,43.84
2023-01-17T00:40:03.284Z,43.84
2023-01-17T00:41:03.346Z,43.82
2023-01-17T00:42:03.431Z,43.82
2023-01-17T00:43:03.519Z,43.81
2023-01-17T00:44:03.626Z,43.83
2023-01-17T00:45:03.692Z,43.82
2023-01-17T00:46:03.805Z,43.84
2023-01-17T00:47:03.880Z,43.87
2023-01-17T00:48:03.966Z,43.86
2023-01-17T00:49:04.022Z,43.86
2023-01-17T00:50:04.101Z,43.84
2023-01-17T00:51:04.198Z,43.84
2023-01-17T00:52:04.311Z,43.84
2023-01-17T00:53:10.347Z,43.85
2023-01-17T00:54:04.485Z,43.88
2023-01-17T00:55:04.565Z,43.87
2023-01-17T00:56:04.631Z,43.87
2023-01-17T00:57:04.748Z,43.87
2023-01-17T00:58:04.796Z,43.86
2023-01-17T00:59:04.864Z,43.87
2023-01-17T01:00:04.962Z,43.87
2023-01-17T01:01:05.159Z,43.86
2023-01-17T01:02:05.243Z,43.88
2023-01-17T01:03:05.266Z,43.86
2023-01-17T01:04:05.289Z,43.86
2023-01-17T01:05:05.390Z,43.86
2023-01-17T01:06:05.480Z,43.86
2023-01-17T01:07:05.571Z,43.87
2023-01-17T01:08:05.778Z,43.89
2023-01-17T01:09:05.728Z,43.87
2023-01-17T01:10:06.543Z,43.86
2023-01-17T01:11:05.900Z,43.87
2023-01-17T01:12:05.964Z,43.87
2023-01-17T01:13:06.047Z,43.87
2023-01-17T01:14:06.168Z,43.86
2023-01-17T01:15:06.226Z,43.88
2023-01-17T01:16:06.302Z,43.87
2023-01-17T01:17:06.376Z,43.89
2023-01-17T01:18:06.476Z,43.86
2023-01-17T01:19:06.579Z,43.86
2023-01-17T01:20:06.678Z,43.87
2023-01-17T01:21:06.747Z,43.90
2023-01-17T01:22:06.841Z,43.87
2023-01-17T01:23:06.918Z,43.89
2023-01-17T01:24:13.094Z,43.88
2023-01-17T01:25:07.111Z,43.91
2023-01-17T01:26:07.177Z,43.88
2023-01-17T01:27:07.257Z,43.88
2023-01-17T01:28:07.330Z,43.89
2023-01-17T01:29:07.426Z,43.89
2023-01-17T01:30:07.526Z,43.87
2023-01-17T01:31:07.673Z,43.86
2023-01-17T01:32:07.659Z,43.88
2023-01-17T01:33:07.724Z,43.87
2023-01-17T01:34:07.812Z,43.87
2023-01-17T01:35:07.890Z,43.88
2023-01-17T01:36:08.021Z,43.86
2023-01-17T01:37:08.060Z,43.86
2023-01-17T01:38:08.148Z,43.86
2023-01-17T01:39:08.236Z,43.88
2023-01-17T01:40:08.325Z,43.88
2023-01-17T01:41:08.393Z,43.88
2023-01-17T01:42:08.519Z,43.86
2023-01-17T01:43:08.596Z,43.87
2023-01-17T01:44:08.671Z,43.87
2023-01-17T01:45:08.747Z,43.86
2023-01-17T01:46:08.841Z,43.86
2023-01-17T01:47:08.891Z,43.85
2023-01-17T01:48:08.976Z,43.86
2023-01-17T01:49:09.044Z,43.86
2023-01-17T01:50:09.118Z,43.85
2023-01-17T01:51:09.223Z,43.84
2023-01-17T01:52:09.301Z,43.85
2023-01-17T01:53:09.385Z,43.86
2023-01-17T01:54:09.484Z,43.85
2023-01-17T01:55:15.507Z,43.86
2023-01-17T01:56:09.635Z,43.87
2023-01-17T01:57:09.725Z,43.89
2023-01-17T01:58:09.813Z,43.89
2023-01-17T01:59:09.882Z,43.89
2023-01-17T02:00:09.986Z,43.88
2023-01-17T02:01:10.138Z,43.88
2023-01-17T02:02:10.131Z,43.87
2023-01-17T02:03:10.231Z,43.89
2023-01-17T02:04:10.404Z,43.89
2023-01-17T02:05:10.417Z,43.88
2023-01-17T02:06:10.492Z,43.88
2023-01-17T02:07:10.564Z,43.86
2023-01-17T02:08:10.654Z,43.89
2023-01-17T02:09:10.734Z,43.87
2023-01-17T02:10:10.814Z,43.88
2023-01-17T02:11:10.892Z,43.88
2023-01-17T02:12:10.990Z,43.88
2023-01-17T02:13:11.080Z,43.88
2023-01-17T02:14:11.126Z,43.89
2023-01-17T02:15:11.214Z,43.89
2023-01-17T02:16:11.312Z,43.88
2023-01-17T02:17:11.360Z,43.91
2023-01-17T02:18:11.452Z,43.89
2023-01-17T02:19:11.513Z,43.91
2023-01-17T02:20:11.620Z,43.87
2023-01-17T02:21:11.682Z,43.88
2023-01-17T02:22:11.773Z,43.88
2023-01-17T02:23:11.879Z,43.88
2023-01-17T02:24:11.961Z,43.89
2023-01-17T02:25:12.008Z,43.90
2023-01-17T02:26:18.071Z,43.89
2023-01-17T02:27:12.186Z,43.92
2023-01-17T02:28:12.302Z,43.89
2023-01-17T02:29:12.362Z,43.87
2023-01-17T02:30:12.466Z,43.88
2023-01-17T02:31:12.534Z,43.89
2023-01-17T02:32:12.600Z,43.88
2023-01-17T02:33:12.693Z,43.88
2023-01-17T02:34:12.800Z,43.89
2023-01-17T02:35:12.855Z,43.87
2023-01-17T02:36:12.925Z,43.88
2023-01-17T02:37:13.029Z,43.87
2023-01-17T02:38:13.098Z,43.88
2023-01-17T02:39:13.200Z,43.89
2023-01-17T02:40:13.280Z,43.91
2023-01-17T02:41:13.315Z,43.89
2023-01-17T02:42:13.395Z,43.91
2023-01-17T02:43:13.477Z,43.88
2023-01-17T02:44:13.580Z,43.89
2023-01-17T02:45:13.661Z,43.88
2023-01-17T02:46:13.786Z,43.88
2023-01-17T02:47:13.818Z,43.90
2023-01-17T02:48:13.925Z,43.91
2023-01-17T02:49:14.001Z,43.90
2023-01-17T02:50:14.100Z,43.90
2023-01-17T02:51:14.190Z,43.91
2023-01-17T02:52:14.298Z,43.91
2023-01-17T02:53:14.355Z,43.89
2023-01-17T02:54:14.459Z,43.89
2023-01-17T02:55:14.526Z,43.88
2023-01-17T02:56:14.633Z,43.89
2023-01-17T02:57:20.654Z,43.89
2023-01-17T02:58:14.740Z,43.91
2023-01-17T02:59:14.810Z,43.88
2023-01-17T03:00:14.892Z,43.89
2023-01-17T03:01:15.108Z,43.92
2023-01-17T03:02:15.168Z,43.93
2023-01-17T03:03:15.122Z,43.95
2023-01-17T03:04:15.217Z,43.94
2023-01-17T03:05:15.308Z,43.94
2023-01-17T03:06:15.399Z,43.91
2023-01-17T03:07:15.496Z,43.91
2023-01-17T03:08:15.565Z,43.89
2023-01-17T03:09:15.667Z,43.89
2023-01-17T03:10:15.748Z,43.91
2023-01-17T03:11:15.814Z,43.91
2023-01-17T03:12:15.904Z,43.92
2023-01-17T03:13:15.999Z,43.92
2023-01-17T03:14:16.085Z,43.92
2023-01-17T03:15:16.161Z,43.93
2023-01-17T03:16:16.327Z,43.94
2023-01-17T03:17:16.348Z,43.94
2023-01-17T03:18:16.412Z,43.95
2023-01-17T03:19:16.500Z,43.93
2023-01-17T03:20:16.576Z,43.94
2023-01-17T03:21:16.641Z,43.94
2023-01-17T03:22:16.735Z,43.92
2023-01-17T03:23:16.796Z,43.92
2023-01-17T03:24:16.911Z,43.94
2023-01-17T03:25:17.014Z,43.94
2023-01-17T03:26:17.070Z,43.94
2023-01-17T03:27:17.152Z,43.95
2023-01-17T03:28:23.182Z,43.95
2023-01-17T03:29:17.306Z,43.98
2023-01-17T03:30:17.402Z,43.98
2023-01-17T03:31:17.491Z,43.97
2023-01-17T03:32:17.532Z,43.95
2023-01-17T03:33:17.646Z,43.97
2023-01-17T03:34:17.703Z,43.95
2023-01-17T03:35:17.799Z,43.95
2023-01-17T03:36:17.886Z,43.94
2023-01-17T03:37:17.988Z,43.94
2023-01-17T03:38:18.048Z,43.95
2023-01-17T03:39:18.114Z,43.94
2023-01-17T03:40:18.203Z,43.97
2023-01-17T03:41:18.313Z,43.96
2023-01-17T03:42:18.421Z,43.97
2023-01-17T03:43:18.522Z,43.96
2023-01-17T03:44:18.585Z,43.96
2023-01-17T03:45:18.672Z,43.96
2023-01-17T03:46:18.754Z,43.95
2023-01-17T03:47:18.841Z,43.97
2023-01-17T03:48:18.943Z,43.97
2023-01-17T03:49:19.034Z,43.97
2023-01-17T03:50:19.095Z,43.97
2023-01-17T03:51:19.183Z,43.98
2023-01-17T03:52:19.253Z,43.96
2023-01-17T03:53:19.345Z,43.98
2023-01-17T03:54:19.422Z,43.98
2023-01-17T03:55:19.504Z,43.98
2023-01-17T03:56:19.578Z,43.96
2023-01-17T03:57:19.652Z,43.99
2023-01-17T03:58:19.735Z,43.98
2023-01-17T03:59:25.791Z,43.98
2023-01-17T04:00:19.908Z,44.00
2023-01-17T04:01:20.147Z,43.98
2023-01-17T04:02:20.137Z,43.96
2023-01-17T04:03:20.178Z,43.96
2023-01-17T04:04:20.275Z,43.96
2023-01-17T04:05:20.363Z,43.98
2023-01-17T04:06:20.444Z,43.98
2023-01-17T04:07:20.558Z,43.98
2023-01-17T04:08:20.604Z,43.96
2023-01-17T04:09:20.680Z,43.98
2023-01-17T04:10:20.774Z,43.96
2023-01-17T04:11:20.842Z,43.96
2023-01-17T04:12:20.941Z,43.98
2023-01-17T04:13:21.049Z,43.98
2023-01-17T04:14:21.101Z,43.98
2023-01-17T04:15:21.181Z,43.97
2023-01-17T04:16:21.309Z,43.97
2023-01-17T04:17:21.365Z,43.98
2023-01-17T04:18:21.441Z,43.99
2023-01-17T04:19:21.549Z,43.98
2023-01-17T04:20:21.616Z,43.99
2023-01-17T04:21:21.712Z,43.99
2023-01-17T04:22:21.796Z,43.99
2023-01-17T04:23:21.874Z,43.99
2023-01-17T04:24:21.943Z,43.99
2023-01-17T04:25:22.030Z,43.99
2023-01-17T04:26:22.117Z,43.99
2023-01-17T04:27:22.190Z,43.99
2023-01-17T04:28:22.286Z,44.01
2023-01-17T04:29:22.384Z,44.00
2023-01-17T04:30:28.675Z,44.01
2023-01-17T04:31:22.584Z,44.04
2023-01-17T04:32:22.691Z,44.02
2023-01-17T04:33:22.741Z,44.01
2023-01-17T04:34:22.836Z,44.02
2023-01-17T04:35:22.917Z,44.01
2023-01-17T04:36:23.029Z,44.01
2023-01-17T04:37:23.061Z,44.01
2023-01-17T04:38:23.139Z,44.01
2023-01-17T04:39:23.209Z,44.01
2023-01-17T04:40:23.287Z,44.02
2023-01-17T04:41:23.366Z,44.01
2023-01-17T04:42:23.460Z,44.02
2023-01-17T04:43:23.508Z,44.02
2023-01-17T04:44:23.577Z,44.02
2023-01-17T04:45:23.670Z,44.03
2023-01-17T04:46:23.765Z,44.02
2023-01-17T04:47:23.865Z,44.01
2023-01-17T04:48:23.917Z,44.03
2023-01-17T04:49:24.009Z,44.02
2023-01-17T04:50:24.071Z,44.04
2023-01-17T04:51:24.138Z,44.03
2023-01-17T04:52:24.235Z,44.05
2023-01-17T04:53:24.299Z,44.03
2023-01-17T04:54:24.380Z,44.05
2023-01-17T04:55:24.469Z,44.05
2023-01-17T04:56:24.573Z,44.06
2023-01-17T04:57:24.632Z,44.05
2023-01-17T04:58:24.736Z,44.04
2023-01-17T04:59:24.819Z,44.07
2023-01-17T05:00:24.894Z,44.08
2023-01-17T05:01:31.019Z,44.08
2023-01-17T05:02:25.073Z,44.11
2023-01-17T05:03:25.160Z,44.08
2023-01-17T05:04:25.246Z,44.06
2023-01-17T05:05:25.287Z,44.07
2023-01-17T05:06:25.387Z,44.07
2023-01-17T05:07:25.473Z,44.06
2023-01-17T05:08:25.576Z,44.06
2023-01-17T05:09:25.674Z,44.08
2023-01-17T05:10:25.697Z,44.08
2023-01-17T05:11:25.783Z,44.07
2023-01-17T05:12:25.850Z,44.07
2023-01-17T05:13:25.936Z,44.05
2023-01-17T05:14:26.040Z,44.05
2023-01-17T05:15:26.225Z,44.06
2023-01-17T05:16:26.183Z,44.06
2023-01-17T05:17:26.266Z,44.05
2023-01-17T05:18:26.362Z,44.07
2023-01-17T05:19:26.431Z,44.10
2023-01-17T05:20:26.540Z,44.11
2023-01-17T05:21:26.590Z,44.10
2023-01-17T05:22:26.685Z,44.09
2023-01-17T05:23:26.763Z,44.06
2023-01-17T05:24:26.837Z,44.06
2023-01-17T05:25:26.941Z,44.05
2023-01-17T05:26:27.023Z,44.08
2023-01-17T05:27:27.134Z,44.09
2023-01-17T05:28:27.193Z,44.08
2023-01-17T05:29:27.280Z,44.09
2023-01-17T05:30:27.367Z,44.07
2023-01-17T05:31:27.459Z,44.09
2023-01-17T05:32:33.719Z,44.08
2023-01-17T05:33:27.609Z,44.12
2023-01-17T05:34:27.687Z,44.10
2023-01-17T05:35:27.748Z,44.10
2023-01-17T05:36:27.845Z,44.09
2023-01-17T05:37:27.914Z,44.12
2023-01-17T05:38:28.020Z,44.12
2023-01-17T05:39:28.080Z,44.11
2023-01-17T05:40:28.164Z,44.10
2023-01-17T05:41:28.223Z,44.09
2023-01-17T05:42:28.317Z,44.14
2023-01-17T05:43:28.395Z,44.14
2023-01-17T05:44:28.479Z,44.13
2023-01-17T05:45:28.552Z,44.12
2023-01-17T05:46:28.678Z,44.10
2023-01-17T05:47:28.732Z,44.12
2023-01-17T05:48:28.810Z,44.12
2023-01-17T05:49:28.955Z,44.13
2023-01-17T05:50:29.016Z,44.13
2023-01-17T05:51:29.101Z,44.13
2023-01-17T05:52:29.171Z,44.13
2023-01-17T05:53:29.246Z,44.13
2023-01-17T05:54:29.330Z,44.13
2023-01-17T05:55:29.423Z,44.15
2023-01-17T05:56:29.523Z,44.15
2023-01-17T05:57:29.599Z,44.13
2023-01-17T05:58:29.696Z,44.13
2023-01-17T05:59:37.095Z,44.14
2023-01-17T06:00:29.863Z,44.15
2023-01-17T06:01:29.938Z,44.14
2023-01-17T06:02:30.110Z,44.14
2023-01-17T06:03:36.040Z,44.13
2023-01-17T06:04:30.189Z,44.17
2023-01-17T06:05:30.230Z,44.14
2023-01-17T06:06:30.366Z,44.14
2023-01-17T06:07:30.397Z,44.14
2023-01-17T06:08:30.484Z,44.15
2023-01-17T06:09:30.530Z,44.15
2023-01-17T06:10:30.622Z,44.16
2023-01-17T06:11:30.688Z,44.16
2023-01-17T06:12:30.758Z,44.16
2023-01-17T06:13:30.854Z,44.14
2023-01-17T06:14:30.965Z,44.16
2023-01-17T06:15:31.013Z,44.17
2023-01-17T06:16:31.109Z,44.17
2023-01-17T06:17:31.192Z,44.15
2023-01-17T06:18:31.265Z,44.15
2023-01-17T06:19:31.375Z,44.15
2023-01-17T06:20:31.453Z,44.12
2023-01-17T06:21:31.497Z,44.13
2023-01-17T06:22:31.607Z,44.14
2023-01-17T06:23:31.675Z,44.14
2023-01-17T06:24:31.745Z,44.15
2023-01-17T06:25:31.887Z,44.15
2023-01-17T06:26:31.927Z,44.15
2023-01-17T06:27:32.037Z,44.15
2023-01-17T06:28:32.106Z,44.14
2023-01-17T06:29:32.204Z,44.15
2023-01-17T06:30:32.300Z,44.13
2023-01-17T06:31:32.440Z,44.14
2023-01-17T06:32:32.434Z,44.14
2023-01-17T06:33:32.534Z,44.13
2023-01-17T06:34:38.600Z,44.14
2023-01-17T06:35:32.729Z,44.22
2023-01-17T06:36:32.828Z,43.98
2023-01-17T06:37:32.876Z,44.00
2023-01-17T06:38:32.972Z,43.99
2023-01-17T06:39:33.043Z,44.02
2023-01-17T06:40:33.144Z,44.00
2023-01-17T06:41:33.242Z,44.02
2023-01-17T06:42:33.342Z,44.02
2023-01-17T06:43:33.393Z,44.03
2023-01-17T06:44:33.484Z,44.04
2023-01-17T06:45:34.230Z,44.04
2023-01-17T06:46:33.725Z,44.05
2023-01-17T06:47:33.736Z,44.05
2023-01-17T06:48:33.793Z,44.06
2023-01-17T06:49:33.881Z,44.07
2023-01-17T06:50:33.974Z,44.08
2023-01-17T06:51:34.052Z,44.10
2023-01-17T06:52:34.145Z,44.09
2023-01-17T06:53:34.253Z,44.11
2023-01-17T06:54:34.304Z,44.09
2023-01-17T06:55:34.401Z,44.08
2023-01-17T06:56:34.473Z,44.06
2023-01-17T06:57:34.532Z,44.08
2023-01-17T06:58:34.645Z,44.08
2023-01-17T06:59:34.715Z,44.08
2023-01-17T07:00:34.858Z,44.10
2023-01-17T07:01:34.974Z,44.12
2023-01-17T07:02:34.954Z,44.09
2023-01-17T07:03:35.066Z,44.11
2023-01-17T07:04:35.162Z,44.13
2023-01-17T07:05:41.181Z,44.12
2023-01-17T07:06:35.294Z,44.15
2023-01-17T07:07:35.381Z,44.13
2023-01-17T07:08:35.468Z,44.11
2023-01-17T07:09:35.580Z,44.09
2023-01-17T07:10:35.633Z,44.10
2023-01-17T07:11:35.725Z,44.13
2023-01-17T07:12:35.793Z,44.11
2023-01-17T07:13:36.532Z,44.13
2023-01-17T07:14:35.980Z,44.13
2023-01-17T07:15:36.087Z,44.11
2023-01-17T07:16:36.163Z,44.10
2023-01-17T07:17:36.229Z,44.09
2023-01-17T07:18:36.313Z,44.16
2023-01-17T07:19:36.389Z,43.68
2023-01-17T07:20:36.513Z,43.46
2023-01-17T07:21:36.574Z,43.14
2023-01-17T07:22:36.658Z,43.16
2023-01-17T07:23:36.729Z,43.00
2023-01-17T07:24:36.829Z,43.18
2023-01-17T07:25:36.924Z,43.14
2023-01-17T07:26:37.044Z,43.15
2023-01-17T07:27:37.070Z,43.20
2023-01-17T07:28:37.153Z,43.19
2023-01-17T07:29:37.255Z,43.21
2023-01-17T07:30:38.160Z,43.05
2023-01-17T07:31:37.428Z,43.05
2023-01-17T07:32:37.502Z,43.16
2023-01-17T07:33:37.557Z,43.25
2023-01-17T07:34:37.629Z,43.47
2023-01-17T07:35:37.729Z,43.53
2023-01-17T07:36:43.768Z,43.59
2023-01-17T07:37:37.868Z,43.63
2023-01-17T07:38:37.982Z,43.66
2023-01-17T07:39:38.044Z,43.67
2023-01-17T07:40:42.012Z,43.71
2023-01-17T07:41:38.217Z,43.77
2023-01-17T07:42:38.336Z,43.79
2023-01-17T07:43:38.405Z,43.84
2023-01-17T07:44:41.175Z,43.86
2023-01-17T07:45:38.539Z,43.94
2023-01-17T07:46:38.693Z,43.98
2023-01-17T07:47:38.735Z,44.00
2023-01-17T07:48:38.838Z,44.01
2023-01-17T07:49:38.900Z,44.01
2023-01-17T07:50:38.987Z,44.04
2023-01-17T07:51:39.027Z,44.07
2023-01-17T07:52:39.177Z,44.11
2023-01-17T07:53:39.213Z,44.15
2023-01-17T07:54:39.299Z,44.16
2023-01-17T07:55:39.381Z,44.21
2023-01-17T07:56:39.492Z,44.21
2023-01-17T07:57:39.574Z,44.23
2023-01-17T07:58:39.674Z,44.26
2023-01-17T07:59:39.752Z,44.28
2023-01-17T08:00:39.902Z,44.32
2023-01-17T08:01:40.003Z,44.34
2023-01-17T08:02:39.982Z,44.40
2023-01-17T08:03:40.359Z,44.38
2023-01-17T08:04:40.136Z,44.37
2023-01-17T08:05:40.222Z,44.41
2023-01-17T08:06:40.311Z,44.43
2023-01-17T08:07:46.789Z,44.46
2023-01-17T08:08:40.471Z,44.51
2023-01-17T08:09:40.535Z,44.54
2023-01-17T08:10:40.619Z,44.56
2023-01-17T08:11:40.715Z,44.54
2023-01-17T08:12:40.792Z,44.55
2023-01-17T08:13:40.898Z,44.62
2023-01-17T08:14:40.948Z,44.64
2023-01-17T08:15:41.061Z,44.61
2023-01-17T08:16:41.170Z,44.61
2023-01-17T08:17:41.197Z,44.63
2023-01-17T08:18:41.269Z,44.66
2023-01-17T08:19:41.381Z,44.68
2023-01-17T08:20:41.488Z,44.66
2023-01-17T08:21:41.536Z,44.66
2023-01-17T08:22:41.635Z,44.62
2023-01-17T08:23:41.716Z,44.63
2023-01-17T08:24:41.835Z,44.63
2023-01-17T08:25:41.854Z,44.64
2023-01-17T08:26:41.948Z,44.67
2023-01-17T08:27:42.050Z,44.70
2023-01-17T08:28:42.098Z,44.72
2023-01-17T08:29:42.195Z,44.72
2023-01-17T08:30:42.294Z,44.70
2023-01-17T08:31:42.409Z,44.72
2023-01-17T08:32:42.450Z,44.72
2023-01-17T08:33:42.525Z,44.72
2023-01-17T08:34:42.611Z,44.75
2023-01-17T08:35:42.723Z,44.74
2023-01-17T08:36:42.779Z,44.71
2023-01-17T08:37:42.851Z,44.72
2023-01-17T08:38:48.929Z,44.72
2023-01-17T08:39:43.025Z,44.77
2023-01-17T08:40:43.233Z,44.77
2023-01-17T08:41:43.218Z,44.76
2023-01-17T08:42:43.269Z,44.78
2023-01-17T08:43:43.349Z,44.79
2023-01-17T08:44:43.436Z,44.76
2023-01-17T08:45:43.601Z,44.78
2023-01-17T08:46:43.667Z,44.78
2023-01-17T08:47:43.707Z,44.76
2023-01-17T08:48:43.785Z,44.75
2023-01-17T08:49:43.864Z,44.74
2023-01-17T08:50:43.952Z,44.74
2023-01-17T08:51:44.085Z,44.74
2023-01-17T08:52:44.117Z,44.72
2023-01-17T08:53:44.184Z,44.73
2023-01-17T08:54:44.261Z,44.72
2023-01-17T08:55:44.346Z,44.72
2023-01-17T08:56:44.420Z,44.71
2023-01-17T08:57:44.545Z,44.72
2023-01-17T08:58:44.615Z,44.69
2023-01-17T08:59:44.699Z,44.73
2023-01-17T09:00:44.887Z,44.74
2023-01-17T09:01:45.092Z,44.76
2023-01-17T09:02:45.046Z,44.75
2023-01-17T09:03:45.100Z,44.77
2023-01-17T09:04:45.169Z,44.78
2023-01-17T09:05:45.250Z,44.80
2023-01-17T09:06:45.324Z,44.80
2023-01-17T09:07:45.366Z,44.82
2023-01-17T09:08:46.445Z,44.82
2023-01-17T09:09:51.820Z,44.83
2023-01-17T09:10:45.558Z,44.86
2023-01-17T09:11:45.654Z,44.85
2023-01-17T09:12:45.736Z,44.83
2023-01-17T09:13:45.837Z,44.79
2023-01-17T09:14:45.920Z,44.85
2023-01-17T09:15:46.029Z,44.80
2023-01-17T09:16:46.159Z,44.77
2023-01-17T09:17:46.182Z,44.74
2023-01-17T09:18:46.248Z,44.72
2023-01-17T09:19:46.991Z,44.72
2023-01-17T09:20:46.430Z,44.76
2023-01-17T09:21:46.517Z,44.80
2023-01-17T09:22:46.567Z,44.80
2023-01-17T09:23:46.663Z,44.81
2023-01-17T09:24:46.713Z,44.86
2023-01-17T09:25:48.468Z,44.83
2023-01-17T09:26:46.885Z,44.82
2023-01-17T09:27:47.007Z,44.78
2023-01-17T09:28:47.046Z,44.80
2023-01-17T09:29:47.135Z,44.83
2023-01-17T09:30:47.258Z,44.84
2023-01-17T09:31:47.284Z,44.84
2023-01-17T09:32:47.353Z,44.83
2023-01-17T09:33:47.445Z,44.87
2023-01-17T09:34:47.520Z,44.89
2023-01-17T09:35:47.575Z,44.88
2023-01-17T09:36:47.712Z,44.86
2023-01-17T09:37:47.735Z,44.89
2023-01-17T09:38:47.819Z,44.88
2023-01-17T09:39:47.909Z,44.88
2023-01-17T09:40:53.977Z,44.89
2023-01-17T09:41:48.093Z,44.87
2023-01-17T09:42:48.156Z,44.86
2023-01-17T09:43:48.255Z,44.85
2023-01-17T09:44:48.356Z,44.85
2023-01-17T09:45:48.422Z,44.85
2023-01-17T09:46:48.484Z,44.85
2023-01-17T09:47:48.594Z,44.83
2023-01-17T09:48:48.688Z,44.81
2023-01-17T09:49:48.798Z,44.83
2023-01-17T09:50:48.874Z,44.82
2023-01-17T09:51:48.956Z,44.78
2023-01-17T09:52:49.032Z,44.76
2023-01-17T09:53:49.094Z,44.76
2023-01-17T09:54:49.187Z,44.77
2023-01-17T09:55:49.278Z,44.73
2023-01-17T09:56:49.394Z,44.73
2023-01-17T09:57:49.462Z,44.73
2023-01-17T09:58:49.522Z,44.69
2023-01-17T10:00:02.276Z,44.71
2023-01-17T10:00:49.757Z,44.72
2023-01-17T10:01:49.931Z,44.71
2023-01-17T10:02:50.800Z,44.68
2023-01-17T10:03:50.079Z,44.70
2023-01-17T10:04:50.101Z,44.69
2023-01-17T10:05:50.156Z,44.70
2023-01-17T10:06:50.241Z,44.69
2023-01-17T10:07:50.329Z,44.71
2023-01-17T10:08:50.352Z,44.72
2023-01-17T10:09:50.421Z,44.71
2023-01-17T10:10:50.542Z,44.75
2023-01-17T10:11:56.862Z,44.73
2023-01-17T10:12:50.710Z,44.72
2023-01-17T10:13:50.946Z,44.71
2023-01-17T10:14:50.837Z,44.69
2023-01-17T10:15:50.926Z,44.68
2023-01-17T10:16:51.141Z,44.65
2023-01-17T10:17:51.141Z,44.69
2023-01-17T10:18:51.183Z,44.56
2023-01-17T10:19:51.286Z,44.45
2023-01-17T10:20:51.340Z,44.30
2023-01-17T10:21:51.405Z,44.11
2023-01-17T10:22:51.563Z,43.95
2023-01-17T10:23:51.567Z,43.96
2023-01-17T10:24:51.662Z,43.90
2023-01-17T10:25:51.787Z,43.80
2023-01-17T10:26:51.844Z,43.76
2023-01-17T10:27:51.918Z,43.70
2023-01-17T10:28:52.021Z,43.70
2023-01-17T10:29:52.061Z,43.60
2023-01-17T10:30:52.163Z,43.51
2023-01-17T10:31:52.198Z,43.49
2023-01-17T10:32:52.314Z,43.46
2023-01-17T10:33:52.427Z,43.42
2023-01-17T10:34:52.494Z,43.41
2023-01-17T10:35:52.593Z,43.39
2023-01-17T10:36:52.663Z,43.38
2023-01-17T10:37:52.746Z,43.33
2023-01-17T10:38:52.833Z,43.20
2023-01-17T10:39:52.910Z,43.27
2023-01-17T10:40:53.018Z,43.17
2023-01-17T10:41:53.063Z,43.18
2023-01-17T10:42:59.129Z,43.22
2023-01-17T10:43:53.263Z,43.19
2023-01-17T10:44:53.379Z,43.15
2023-01-17T10:45:53.439Z,43.13
2023-01-17T10:46:53.513Z,43.22
2023-01-17T10:47:53.570Z,43.09
2023-01-17T10:48:53.641Z,43.12
2023-01-17T10:49:53.743Z,43.04
2023-01-17T10:50:53.785Z,43.10
2023-01-17T10:51:53.879Z,43.09
2023-01-17T10:52:54.004Z,43.10
2023-01-17T10:53:54.014Z,42.95
2023-01-17T10:54:54.114Z,43.00
2023-01-17T10:55:54.195Z,42.97
2023-01-17T10:56:54.292Z,42.94
2023-01-17T10:57:54.395Z,42.96
2023-01-17T10:58:54.484Z,42.92
2023-01-17T10:59:54.518Z,42.97
2023-01-17T11:00:54.619Z,42.89
2023-01-17T11:01:54.857Z,42.88
2023-01-17T11:02:54.825Z,42.93
2023-01-17T11:03:54.877Z,42.88
2023-01-17T11:04:54.959Z,42.90
2023-01-17T11:05:55.016Z,42.80
2023-01-17T11:06:58.266Z,42.74
2023-01-17T11:07:55.191Z,42.81
2023-01-17T11:08:55.256Z,42.83
2023-01-17T11:09:55.355Z,42.79
2023-01-17T11:10:55.438Z,42.78
2023-01-17T11:11:55.510Z,42.83
2023-01-17T11:12:55.556Z,42.75
2023-01-17T11:14:01.591Z,42.71
2023-01-17T11:14:55.727Z,42.75
2023-01-17T11:15:55.886Z,42.75
2023-01-17T11:16:55.882Z,42.73
2023-01-17T11:17:55.951Z,42.70
2023-01-17T11:18:56.053Z,42.64
2023-01-17T11:19:56.149Z,42.70
2023-01-17T11:20:56.234Z,42.64
2023-01-17T11:21:56.345Z,42.64
2023-01-17T11:22:56.424Z,42.64
2023-01-17T11:23:56.536Z,42.69
2023-01-17T11:24:56.595Z,42.61
2023-01-17T11:25:56.695Z,42.65
2023-01-17T11:26:56.800Z,42.70
2023-01-17T11:27:56.858Z,42.66
2023-01-17T11:28:56.944Z,42.72
2023-01-17T11:29:57.040Z,42.81
2023-01-17T11:30:57.150Z,42.69
2023-01-17T11:31:57.200Z,42.74
2023-01-17T11:32:57.312Z,42.66
2023-01-17T11:33:57.373Z,42.68
2023-01-17T11:34:57.428Z,42.72
2023-01-17T11:35:57.529Z,42.64
2023-01-17T11:36:57.627Z,42.72
2023-01-17T11:37:57.731Z,42.67
2023-01-17T11:38:57.788Z,42.74
2023-01-17T11:39:57.877Z,42.74
2023-01-17T11:40:57.978Z,42.68
2023-01-17T11:41:58.075Z,42.69
2023-01-17T11:42:58.133Z,42.60
2023-01-17T11:43:58.253Z,42.68
2023-01-17T11:45:04.304Z,42.60
2023-01-17T11:45:58.476Z,42.73
2023-01-17T11:46:58.481Z,42.72
2023-01-17T11:47:58.562Z,42.65
2023-01-17T11:48:58.670Z,42.85
2023-01-17T11:49:58.759Z,42.79
2023-01-17T11:50:58.834Z,42.79
2023-01-17T11:51:58.877Z,42.75
2023-01-17T11:52:58.978Z,42.66
2023-01-17T11:53:59.081Z,42.71
2023-01-17T11:54:59.149Z,42.66
2023-01-17T11:55:59.230Z,42.66
2023-01-17T11:56:59.313Z,41.15
2023-01-17T11:57:59.382Z,40.85
2023-01-17T11:58:59.495Z,40.32
2023-01-17T11:59:59.615Z,38.51
2023-01-17T12:00:59.686Z,40.56
2023-01-17T12:01:59.750Z,41.40
2023-01-17T12:02:59.832Z,41.26
2023-01-17T12:03:59.952Z,41.29
2023-01-17T12:05:00.116Z,41.31
2023-01-17T12:06:00.295Z,41.32
2023-01-17T12:07:00.238Z,41.31
2023-01-17T12:08:00.392Z,41.27
2023-01-17T12:09:00.393Z,41.28
2023-01-17T12:10:00.496Z,41.47
2023-01-17T12:11:00.613Z,41.38
2023-01-17T12:12:00.663Z,41.30
2023-01-17T12:13:00.746Z,41.28
2023-01-17T12:14:00.872Z,41.27
2023-01-17T12:15:00.915Z,41.38
2023-01-17T12:16:07.486Z,41.33
2023-01-17T12:17:01.120Z,41.41
2023-01-17T12:18:01.167Z,41.40
2023-01-17T12:19:01.249Z,41.49
2023-01-17T12:20:01.583Z,41.44
2023-01-17T12:21:01.417Z,41.45
2023-01-17T12:22:01.520Z,41.49
2023-01-17T12:23:01.554Z,41.49
2023-01-17T12:24:01.639Z,41.52
2023-01-17T12:25:01.708Z,41.53
2023-01-17T12:26:01.771Z,41.54
2023-01-17T12:27:01.882Z,41.56
2023-01-17T12:28:01.979Z,41.55
2023-01-17T12:29:02.029Z,41.60
2023-01-17T12:30:02.092Z,41.60
2023-01-17T12:31:02.249Z,41.67
2023-01-17T12:32:02.250Z,41.62
2023-01-17T12:33:02.356Z,41.61
2023-01-17T12:34:02.477Z,41.60
2023-01-17T12:35:02.488Z,41.61
2023-01-17T12:36:02.587Z,41.62
2023-01-17T12:37:02.653Z,41.61
2023-01-17T12:38:05.461Z,41.60
2023-01-17T12:39:02.815Z,41.64
2023-01-17T12:40:02.864Z,41.60
2023-01-17T12:41:03.168Z,41.52
2023-01-17T12:42:03.047Z,41.64
2023-01-17T12:43:03.124Z,41.59
2023-01-17T12:44:03.258Z,41.64
2023-01-17T12:45:03.327Z,41.65
2023-01-17T12:46:03.423Z,41.65
2023-01-17T12:47:09.429Z,41.62
2023-01-17T12:48:03.550Z,41.65
2023-01-17T12:49:03.625Z,41.69
2023-01-17T12:50:03.756Z,41.64
2023-01-17T12:51:03.776Z,41.68
2023-01-17T12:52:03.899Z,41.66
2023-01-17T12:53:03.960Z,41.65